createdAt,value
2018-09-21T00:00:39.536Z,7.90
2018-09-21T00:03:07.083Z,7.63
2018-09-21T00:05:34.269Z,8.30
2018-09-21T00:08:01.707Z,8.43
2018-09-21T00:10:28.897Z,8.37
2018-09-21T00:12:56.119Z,8.30
2018-09-21T00:15:23.651Z,8.93
2018-09-21T00:17:50.862Z,8.17
2018-09-21T00:20:18.052Z,7.90
2018-09-21T00:22:45.228Z,8.07
2018-09-21T00:25:12.381Z,8.17
2018-09-21T00:27:39.582Z,8.20
2018-09-21T00:30:06.777Z,9.40
2018-09-21T00:32:33.976Z,9.37
2018-09-21T00:35:01.155Z,8.17
2018-09-21T00:37:28.319Z,9.10
2018-09-21T00:39:55.517Z,8.10
2018-09-21T00:42:22.921Z,8.00
2018-09-21T00:44:50.090Z,8.80
2018-09-21T00:47:17.323Z,9.03
2018-09-21T00:49:44.531Z,9.97
2018-09-21T00:52:11.718Z,10.40
2018-09-21T00:54:38.912Z,8.87
2018-09-21T00:57:06.250Z,8.67
2018-09-21T00:59:33.450Z,8.83
2018-09-21T01:02:00.606Z,8.80
2018-09-21T01:04:32.111Z,8.80
2018-09-21T01:06:59.301Z,7.67
2018-09-21T01:09:26.525Z,9.23
2018-09-21T01:11:53.735Z,9.80
2018-09-21T01:14:20.939Z,8.63
2018-09-21T01:16:48.103Z,9.37
2018-09-21T01:19:15.552Z,8.97
2018-09-21T01:21:42.732Z,9.03
2018-09-21T01:24:09.947Z,8.80
2018-09-21T01:26:37.120Z,8.70
2018-09-21T01:29:04.383Z,9.50
2018-09-21T01:31:31.620Z,9.57
2018-09-21T01:33:58.804Z,9.00
2018-09-21T01:36:26.010Z,9.27
2018-09-21T01:38:53.209Z,9.00
2018-09-21T01:41:20.379Z,9.70
2018-09-21T01:43:47.594Z,9.13
2018-09-21T01:46:15.370Z,9.30
2018-09-21T01:48:42.548Z,9.83
2018-09-21T01:51:09.761Z,9.93
2018-09-21T01:53:36.945Z,8.73
2018-09-21T01:56:04.173Z,8.70
2018-09-21T01:58:31.351Z,8.57
2018-09-21T02:00:58.691Z,9.93
2018-09-21T02:03:25.873Z,10.50
2018-09-21T02:05:53.083Z,9.60
2018-09-21T02:08:20.277Z,9.37
2018-09-21T02:10:47.466Z,8.33
2018-09-21T02:13:14.669Z,9.07
2018-09-21T02:15:41.829Z,9.10
2018-09-21T02:18:09.075Z,8.70
2018-09-21T02:20:36.283Z,9.10
2018-09-21T02:23:03.505Z,9.27
2018-09-21T02:25:30.667Z,9.07
2018-09-21T02:27:57.853Z,8.40
2018-09-21T02:30:25.036Z,7.97
2018-09-21T02:32:52.498Z,8.80
2018-09-21T02:35:19.643Z,8.77
2018-09-21T02:37:46.852Z,8.03
2018-09-21T02:40:14.141Z,8.47
2018-09-21T02:42:41.329Z,8.10
2018-09-21T02:45:08.756Z,8.60
2018-09-21T02:47:36.214Z,8.10
2018-09-21T02:50:03.387Z,9.30
2018-09-21T02:52:30.597Z,9.10
2018-09-21T02:54:57.923Z,9.00
2018-09-21T02:57:25.106Z,9.00
2018-09-21T02:59:52.282Z,9.60
2018-09-21T03:02:19.572Z,9.73
2018-09-21T03:04:53.363Z,9.77
2018-09-21T03:07:20.808Z,9.80
2018-09-21T03:09:48.000Z,10.00
2018-09-21T03:12:15.226Z,10.03
2018-09-21T03:14:42.387Z,9.80
2018-09-21T03:17:09.603Z,10.30
2018-09-21T03:19:36.772Z,9.80
2018-09-21T03:22:03.931Z,8.40
2018-09-21T03:24:31.274Z,9.03
2018-09-21T03:26:58.472Z,9.40
2018-09-21T03:29:25.692Z,9.13
2018-09-21T03:31:52.862Z,9.00
2018-09-21T03:34:20.204Z,9.13
2018-09-21T03:36:47.639Z,9.53
2018-09-21T03:39:15.148Z,9.33
2018-09-21T03:41:42.293Z,9.30
2018-09-21T03:44:09.511Z,10.03
2018-09-21T03:46:36.686Z,10.17
2018-09-21T03:49:04.375Z,9.23
2018-09-21T03:51:31.593Z,9.43
2018-09-21T03:53:58.782Z,11.13
2018-09-21T03:56:25.972Z,10.07
2018-09-21T03:58:53.231Z,11.37
2018-09-21T04:01:20.478Z,10.07
2018-09-21T04:03:47.672Z,9.60
2018-09-21T04:06:14.894Z,10.60
2018-09-21T04:08:42.119Z,9.70
2018-09-21T04:11:09.352Z,10.67
2018-09-21T04:13:36.731Z,9.90
2018-09-21T04:16:03.960Z,9.70
2018-09-21T04:18:31.124Z,9.83
2018-09-21T04:20:58.391Z,9.87
2018-09-21T04:23:25.803Z,10.13
2018-09-21T04:25:53.119Z,9.40
2018-09-21T04:28:20.362Z,10.73
2018-09-21T04:30:47.553Z,9.60
2018-09-21T04:33:14.841Z,11.20
2018-09-21T04:35:42.123Z,10.47
2018-09-21T04:38:09.333Z,10.20
2018-09-21T04:40:36.830Z,11.07
2018-09-21T04:43:04.045Z,10.50
2018-09-21T04:45:31.251Z,10.50
2018-09-21T04:47:58.556Z,10.67
2018-09-21T04:50:25.759Z,10.47
2018-09-21T04:52:52.967Z,10.70
2018-09-21T04:55:20.149Z,10.10
2018-09-21T04:57:47.363Z,10.00
2018-09-21T05:00:14.613Z,11.10
2018-09-21T05:02:42.107Z,9.83
2018-09-21T05:05:09.299Z,10.30
2018-09-21T05:07:36.543Z,10.53
2018-09-21T05:10:03.763Z,11.80
2018-09-21T05:12:31.137Z,11.50
2018-09-21T05:14:58.325Z,10.80
2018-09-21T05:20:03.669Z,11.93
2018-09-21T05:22:30.916Z,11.70
2018-09-21T05:24:58.254Z,12.77
2018-09-21T05:27:25.545Z,11.30
2018-09-21T05:29:52.688Z,12.20
2018-09-21T05:32:20.029Z,12.50
2018-09-21T05:34:47.398Z,12.50
2018-09-21T05:37:14.445Z,12.23
2018-09-21T05:39:41.667Z,12.10
2018-09-21T05:42:08.905Z,11.00
2018-09-21T05:44:36.163Z,10.93
2018-09-21T05:47:03.503Z,11.13
2018-09-21T05:49:30.676Z,11.90
2018-09-21T05:51:57.912Z,12.20
2018-09-21T05:54:25.319Z,11.20
2018-09-21T05:56:52.610Z,12.50
2018-09-21T05:59:19.929Z,12.20
2018-09-21T06:01:47.170Z,10.70
2018-09-21T06:04:14.574Z,11.43
2018-09-21T06:06:41.955Z,11.67
2018-09-21T06:09:10.662Z,11.30
2018-09-21T06:11:37.924Z,12.37
2018-09-21T06:14:05.228Z,12.40
2018-09-21T06:16:32.478Z,13.07
2018-09-21T06:18:59.723Z,11.83
2018-09-21T06:21:27.023Z,11.23
2018-09-21T06:23:54.481Z,12.67
2018-09-21T06:26:21.779Z,12.10
2018-09-21T06:28:49.023Z,12.00
2018-09-21T06:31:16.286Z,12.10
2018-09-21T06:33:43.509Z,11.77
2018-09-21T06:36:10.788Z,12.13
2018-09-21T06:38:37.989Z,11.10
2018-09-21T06:41:05.407Z,11.57
2018-09-21T06:43:32.591Z,11.00
2018-09-21T06:45:59.831Z,10.10
2018-09-21T06:48:27.082Z,11.97
2018-09-21T06:50:54.351Z,10.80
2018-09-21T06:53:21.552Z,10.73
2018-09-21T06:55:48.762Z,10.70
2018-09-21T06:58:15.950Z,15.53
2018-09-21T07:00:43.453Z,11.23
2018-09-21T07:03:10.661Z,11.83
2018-09-21T07:05:37.856Z,11.17
2018-09-21T07:08:05.125Z,9.77
2018-09-21T07:10:32.387Z,12.30
2018-09-21T07:12:59.595Z,11.37
2018-09-21T07:15:26.817Z,11.40
2018-09-21T07:17:54.020Z,11.77
2018-09-21T07:20:21.415Z,9.87
2018-09-21T07:22:48.626Z,9.37
2018-09-21T07:25:16.046Z,10.50
2018-09-21T07:27:43.466Z,10.80
2018-09-21T07:30:10.727Z,9.97
2018-09-21T07:32:38.093Z,10.13
2018-09-21T07:35:05.526Z,11.17
2018-09-21T07:37:33.084Z,9.70
2018-09-21T07:40:00.312Z,9.33
2018-09-21T07:42:27.635Z,9.60
2018-09-21T07:44:54.838Z,10.00
2018-09-21T07:47:22.110Z,8.30
2018-09-21T07:49:49.340Z,8.80
2018-09-21T07:52:16.599Z,8.67
2018-09-21T07:54:43.937Z,9.10
2018-09-21T07:57:11.280Z,8.30
2018-09-21T07:59:38.840Z,8.30
2018-09-21T08:02:06.106Z,10.30
2018-09-21T08:04:33.511Z,7.97
2018-09-21T08:07:00.716Z,8.23
2018-09-21T08:09:27.930Z,8.23
2018-09-21T08:11:55.222Z,7.27
2018-09-21T08:14:22.451Z,7.80
2018-09-21T08:16:49.713Z,9.90
2018-09-21T08:19:17.004Z,9.67
2018-09-21T08:21:44.171Z,7.83
2018-09-21T08:24:11.509Z,8.53
2018-09-21T08:26:38.914Z,8.20
2018-09-21T08:29:06.131Z,7.00
2018-09-21T08:31:33.415Z,8.10
2018-09-21T08:34:00.528Z,6.77
2018-09-21T08:36:27.958Z,7.37
2018-09-21T08:38:55.269Z,8.70
2018-09-21T08:41:22.510Z,8.37
2018-09-21T08:43:49.801Z,41.70
2018-09-21T08:46:17.449Z,12.83
2018-09-21T08:48:45.633Z,7.93
2018-09-21T08:51:13.193Z,8.17
2018-09-21T08:53:40.464Z,7.90
2018-09-21T08:56:07.661Z,7.43
2018-09-21T08:58:35.005Z,7.13
2018-09-21T09:01:02.278Z,7.40
2018-09-21T09:03:29.565Z,7.53
2018-09-21T09:05:56.766Z,7.17
2018-09-21T09:08:25.056Z,7.47
2018-09-21T09:10:52.619Z,6.30
2018-09-21T09:13:20.210Z,6.60
2018-09-21T09:15:48.183Z,7.03
2018-09-21T09:18:15.585Z,7.97
2018-09-21T09:20:42.851Z,6.80
2018-09-21T09:23:10.094Z,5.70
2018-09-21T09:25:37.289Z,6.80
2018-09-21T09:28:04.653Z,7.10
2018-09-21T09:30:32.087Z,6.53
2018-09-21T09:32:59.263Z,7.10
2018-09-21T09:35:26.475Z,7.33
2018-09-21T09:37:53.853Z,6.67
2018-09-21T09:40:21.395Z,6.57
2018-09-21T09:42:48.654Z,6.50
2018-09-21T09:45:15.939Z,7.00
2018-09-21T09:47:43.238Z,5.77
2018-09-21T09:50:10.486Z,7.33
2018-09-21T09:52:37.900Z,7.40
2018-09-21T09:55:05.630Z,6.73
2018-09-21T09:57:33.066Z,7.67
2018-09-21T10:00:00.365Z,6.27
2018-09-21T10:02:27.691Z,6.77
2018-09-21T10:04:54.933Z,6.50
2018-09-21T10:07:22.248Z,5.77
2018-09-21T10:09:49.555Z,5.90
2018-09-21T10:12:17.038Z,6.77
2018-09-21T10:14:44.237Z,6.37
2018-09-21T10:17:11.465Z,6.13
2018-09-21T10:19:38.702Z,5.83
2018-09-21T10:22:05.969Z,6.33
2018-09-21T10:24:33.179Z,6.40
2018-09-21T10:27:00.501Z,5.60
2018-09-21T10:29:27.682Z,6.80
2018-09-21T10:31:55.179Z,6.03
2018-09-21T10:34:22.591Z,5.17
2018-09-21T10:36:49.834Z,5.80
2018-09-21T10:39:17.210Z,5.30
2018-09-21T10:41:44.679Z,5.97
2018-09-21T10:44:11.893Z,5.17
2018-09-21T10:46:39.137Z,5.20
2018-09-21T10:49:06.459Z,5.53
2018-09-21T10:51:33.700Z,5.30
2018-09-21T10:54:00.981Z,4.77
2018-09-21T10:56:28.945Z,5.30
2018-09-21T10:58:56.189Z,5.13
2018-09-21T11:01:23.461Z,5.00
2018-09-21T11:03:50.804Z,4.90
2018-09-21T11:06:18.275Z,5.00
2018-09-21T11:08:45.554Z,4.80
2018-09-21T11:11:12.756Z,4.77
2018-09-21T11:13:40.099Z,4.57
2018-09-21T11:16:07.323Z,4.90
2018-09-21T11:18:34.693Z,4.90
2018-09-21T11:21:01.911Z,4.60
2018-09-21T11:23:29.154Z,4.73
2018-09-21T11:25:56.355Z,4.90
2018-09-21T11:28:23.660Z,4.00
2018-09-21T11:30:50.919Z,4.07
2018-09-21T11:33:18.136Z,3.97
2018-09-21T11:35:45.341Z,4.23
2018-09-21T11:38:12.785Z,4.27
2018-09-21T11:40:40.476Z,3.60
2018-09-21T11:43:07.700Z,3.13
2018-09-21T11:45:36.097Z,4.10
2018-09-21T11:48:03.514Z,3.30
2018-09-21T11:50:30.720Z,2.70
2018-09-21T11:52:58.015Z,3.47
2018-09-21T11:55:25.330Z,3.57
2018-09-21T11:57:52.751Z,3.00
2018-09-21T12:00:20.151Z,2.90
2018-09-21T12:02:47.436Z,2.40
2018-09-21T12:05:14.730Z,2.73
2018-09-21T12:07:41.975Z,2.60
2018-09-21T12:10:09.197Z,2.40
2018-09-21T12:12:36.759Z,2.60
2018-09-21T12:15:04.139Z,2.47
2018-09-21T12:17:31.391Z,2.30
2018-09-21T12:19:58.750Z,2.83
2018-09-21T12:22:26.183Z,2.57
2018-09-21T12:24:53.349Z,2.50
2018-09-21T12:27:20.614Z,2.20
2018-09-21T12:29:48.228Z,2.30
2018-09-21T12:32:15.487Z,2.00
2018-09-21T12:34:43.081Z,2.40
2018-09-21T12:37:10.394Z,2.10
2018-09-21T12:39:38.024Z,2.03
2018-09-21T12:42:05.852Z,1.90
2018-09-21T12:44:33.125Z,2.53
2018-09-21T12:47:00.492Z,2.37
2018-09-21T12:49:27.722Z,1.33
2018-09-21T12:51:55.949Z,1.87
2018-09-21T12:54:23.179Z,3.83
2018-09-21T12:56:50.470Z,1.50
2018-09-21T12:59:17.772Z,1.93
2018-09-21T13:01:44.987Z,1.87
2018-09-21T13:04:12.264Z,2.40
2018-09-21T13:06:39.542Z,2.30
2018-09-21T13:09:07.174Z,2.87
2018-09-21T13:11:34.588Z,2.73
2018-09-21T13:14:02.012Z,2.43
2018-09-21T13:16:29.232Z,1.20
2018-09-21T13:18:56.469Z,0.80
2018-09-21T13:21:23.676Z,1.00
2018-09-21T13:23:50.871Z,0.80
2018-09-21T13:26:18.105Z,0.77
2018-09-21T13:28:45.332Z,0.80
2018-09-21T13:31:12.553Z,0.60
2018-09-21T13:33:39.714Z,0.60
2018-09-21T13:36:06.959Z,0.60
2018-09-21T13:38:34.326Z,0.80
2018-09-21T13:41:01.550Z,0.70
2018-09-21T13:43:28.787Z,0.70
2018-09-21T13:45:55.992Z,0.70
2018-09-21T13:48:23.485Z,0.70
2018-09-21T13:50:50.724Z,1.00
2018-09-21T13:53:18.152Z,0.97
2018-09-21T13:55:45.597Z,0.80
2018-09-21T13:58:12.813Z,0.83
2018-09-21T14:00:40.144Z,0.90
2018-09-21T14:03:07.456Z,1.20
2018-09-21T14:05:34.930Z,2.77
2018-09-21T14:08:02.118Z,2.60
2018-09-21T14:10:29.692Z,3.20
2018-09-21T14:12:56.950Z,1.57
2018-09-21T14:15:24.338Z,1.00
2018-09-21T14:17:52.152Z,1.07
2018-09-21T14:20:19.662Z,1.07
2018-09-21T14:22:46.931Z,1.20
2018-09-21T14:25:14.247Z,1.30
2018-09-21T14:27:41.871Z,1.37
2018-09-21T14:30:09.371Z,3.07
2018-09-21T14:32:36.829Z,1.40
2018-09-21T14:35:04.115Z,1.90
2018-09-21T14:37:31.313Z,1.60
2018-09-21T14:39:58.662Z,1.20
2018-09-21T14:42:26.067Z,1.50
2018-09-21T14:44:53.297Z,1.47
2018-09-21T14:47:20.516Z,1.13
2018-09-21T14:49:47.803Z,1.60
2018-09-21T14:52:15.061Z,1.30
2018-09-21T14:54:42.342Z,1.70
2018-09-21T14:57:09.617Z,2.07
2018-09-21T14:59:36.828Z,1.90
2018-09-21T15:02:04.188Z,2.50
2018-09-21T15:04:31.971Z,2.00
2018-09-21T15:06:59.153Z,3.87
2018-09-21T15:09:26.398Z,1.83
2018-09-21T15:11:54.263Z,2.33
2018-09-21T15:14:21.538Z,1.40
2018-09-21T15:19:31.147Z,1.73
2018-09-21T15:21:58.364Z,1.70
2018-09-21T15:24:25.574Z,2.03
2018-09-21T15:26:52.900Z,1.93
2018-09-21T15:29:20.110Z,2.20
2018-09-21T15:31:47.338Z,1.90
2018-09-21T15:34:14.555Z,1.83
2018-09-21T15:36:41.878Z,1.60
2018-09-21T15:39:10.869Z,1.93
2018-09-21T15:41:38.200Z,2.00
2018-09-21T15:44:05.603Z,2.20
2018-09-21T15:46:32.770Z,2.37
2018-09-21T15:49:00.395Z,2.07
2018-09-21T15:51:27.646Z,1.90
2018-09-21T15:53:55.096Z,1.90
2018-09-21T15:59:27.386Z,2.10
2018-09-21T16:01:54.677Z,2.67
2018-09-21T16:04:21.876Z,2.33
2018-09-21T16:06:49.130Z,2.33
2018-09-21T16:09:16.837Z,2.30
2018-09-21T16:11:50.467Z,2.00
2018-09-21T16:14:18.599Z,2.17
2018-09-21T16:16:45.901Z,2.50
2018-09-21T16:19:13.789Z,1.80
2018-09-21T16:21:41.545Z,2.30
2018-09-21T16:24:08.868Z,2.03
2018-09-21T16:26:38.471Z,2.90
2018-09-21T16:29:06.779Z,3.07
2018-09-21T16:31:34.913Z,1.80
2018-09-21T16:34:03.107Z,2.50
2018-09-21T16:36:31.297Z,2.53
2018-09-21T16:38:59.735Z,1.70
2018-09-21T16:41:29.300Z,2.20
2018-09-21T16:43:59.914Z,2.00
2018-09-21T16:46:29.608Z,1.90
2018-09-21T16:49:03.251Z,2.17
2018-09-21T16:51:51.777Z,1.90
2018-09-21T16:54:28.024Z,2.10
2018-09-21T16:56:58.842Z,2.50
2018-09-21T16:59:26.958Z,1.60
2018-09-21T17:01:54.870Z,1.77
2018-09-21T17:04:38.032Z,1.80
2018-09-21T17:07:05.526Z,2.00
2018-09-21T17:09:32.868Z,2.07
2018-09-21T17:12:02.492Z,1.87
2018-09-21T17:14:30.052Z,1.90
2018-09-21T17:16:57.529Z,2.90
2018-09-21T17:19:24.980Z,1.77
2018-09-21T17:21:52.440Z,2.13
2018-09-21T17:24:19.765Z,1.87
2018-09-21T17:26:47.429Z,1.40
2018-09-21T17:29:14.987Z,2.10
2018-09-21T17:31:42.783Z,1.87
2018-09-21T17:34:10.162Z,1.40
2018-09-21T17:36:37.334Z,1.70
2018-09-21T17:39:07.036Z,1.37
2018-09-21T17:41:34.337Z,1.73
2018-09-21T17:44:01.725Z,1.37
2018-09-21T17:46:28.950Z,1.50
2018-09-21T17:48:56.155Z,1.50
2018-09-21T17:51:23.418Z,1.70
2018-09-21T17:53:50.900Z,1.20
2018-09-21T17:56:18.195Z,1.37
2018-09-21T17:58:45.446Z,1.10
2018-09-21T18:01:12.788Z,1.40
2018-09-21T18:03:40.142Z,1.90
2018-09-21T18:06:07.624Z,1.40
2018-09-21T18:08:35.298Z,1.20
2018-09-21T18:11:02.581Z,1.10
2018-09-21T18:13:29.869Z,0.90
2018-09-21T18:15:57.173Z,1.40
2018-09-21T18:18:24.434Z,1.70
2018-09-21T18:20:52.199Z,1.20
2018-09-21T18:23:19.620Z,1.73
2018-09-21T18:25:47.152Z,1.80
2018-09-21T18:28:14.258Z,1.17
2018-09-21T18:30:41.639Z,1.50
2018-09-21T18:33:08.933Z,1.50
2018-09-21T18:35:37.354Z,2.10
2018-09-21T18:38:04.832Z,1.30
2018-09-21T18:40:32.189Z,1.43
2018-09-21T18:42:59.520Z,1.30
2018-09-21T18:45:26.844Z,1.70
2018-09-21T18:47:54.182Z,1.13
2018-09-21T18:50:22.052Z,1.33
2018-09-21T18:52:49.430Z,0.97
2018-09-21T18:55:16.757Z,1.73
2018-09-21T18:57:44.266Z,2.10
2018-09-21T19:00:11.665Z,1.83
2018-09-21T19:02:39.217Z,1.60
2018-09-21T19:05:06.864Z,1.50
2018-09-21T19:07:34.818Z,1.27
2018-09-21T19:10:02.407Z,1.27
2018-09-21T19:12:29.858Z,1.40
2018-09-21T19:14:57.313Z,2.23
2018-09-21T19:17:25.449Z,1.70
2018-09-21T19:19:53.326Z,1.77
2018-09-21T19:22:20.994Z,1.97
2018-09-21T19:24:48.499Z,1.40
2018-09-21T19:27:16.153Z,1.50
2018-09-21T19:29:43.771Z,1.10
2018-09-21T19:32:12.013Z,1.80
2018-09-21T19:34:39.927Z,2.43
2018-09-21T19:37:07.350Z,2.00
2018-09-21T19:39:35.144Z,1.50
2018-09-21T19:42:02.521Z,1.50
2018-09-21T19:44:29.841Z,1.40
2018-09-21T19:46:57.075Z,2.70
2018-09-21T19:49:24.496Z,1.83
2018-09-21T19:51:53.034Z,1.20
2018-09-21T19:54:20.351Z,1.50
2018-09-21T19:56:47.671Z,1.10
2018-09-21T19:59:14.901Z,1.03
2018-09-21T20:01:42.258Z,1.47
2018-09-21T20:04:09.562Z,2.03
2018-09-21T20:06:36.884Z,1.57
2018-09-21T20:09:06.184Z,1.60
2018-09-21T20:11:33.466Z,1.70
2018-09-21T20:14:01.089Z,1.60
2018-09-21T20:16:28.576Z,1.80
2018-09-21T20:18:55.767Z,1.80
2018-09-21T20:21:23.229Z,1.87
2018-09-21T20:23:50.589Z,1.87
2018-09-21T20:26:17.977Z,1.70
2018-09-21T20:28:45.339Z,1.80
2018-09-21T20:31:18.086Z,1.80
2018-09-21T20:33:45.280Z,1.50
2018-09-21T20:36:12.521Z,1.53
2018-09-21T20:38:39.830Z,1.70
2018-09-21T20:41:07.404Z,2.70
2018-09-21T20:43:34.853Z,1.63
2018-09-21T20:46:02.065Z,1.10
2018-09-21T20:48:29.404Z,1.50
2018-09-21T20:50:56.667Z,1.40
2018-09-21T20:53:24.334Z,1.57
2018-09-21T20:55:51.729Z,1.47
2018-09-21T20:58:19.322Z,1.30
2018-09-21T21:00:46.648Z,1.60
2018-09-21T21:03:13.912Z,1.57
2018-09-21T21:05:41.165Z,1.67
2018-09-21T21:08:08.389Z,1.30
2018-09-21T21:10:35.621Z,1.30
2018-09-21T21:13:02.897Z,1.87
2018-09-21T21:15:30.270Z,1.33
2018-09-21T21:17:57.728Z,1.30
2018-09-21T21:20:25.046Z,1.27
2018-09-21T21:22:52.518Z,1.23
2018-09-21T21:25:19.937Z,1.43
2018-09-21T21:27:47.178Z,1.30
2018-09-21T21:30:14.470Z,1.23
2018-09-21T21:32:41.782Z,0.90
2018-09-21T21:35:09.986Z,1.13
2018-09-21T21:37:37.281Z,1.13
2018-09-21T21:40:04.513Z,2.13
2018-09-21T21:42:31.852Z,1.13
2018-09-21T21:44:59.152Z,2.00
2018-09-21T21:47:26.324Z,1.10
2018-09-21T21:49:53.793Z,1.50
2018-09-21T21:52:21.002Z,1.30
2018-09-21T21:54:48.223Z,1.50
2018-09-21T21:57:16.275Z,1.70
2018-09-21T21:59:44.641Z,0.97
2018-09-21T22:02:12.770Z,1.63
2018-09-21T22:04:40.696Z,1.40
2018-09-21T22:07:08.038Z,1.40
2018-09-21T22:09:36.398Z,1.40
2018-09-21T22:12:09.165Z,0.93
2018-09-21T22:14:36.510Z,1.57
2018-09-21T22:17:03.725Z,1.07
2018-09-21T22:19:30.970Z,1.87
2018-09-21T22:21:58.543Z,1.20
2018-09-21T22:24:25.743Z,1.80
2018-09-21T22:26:53.068Z,2.53
2018-09-21T22:29:20.235Z,1.33
2018-09-21T22:32:01.646Z,1.33
2018-09-21T22:34:33.457Z,1.00
2018-09-21T22:37:10.222Z,1.10
2018-09-21T22:39:56.797Z,1.20
2018-09-21T22:42:38.317Z,2.10
2018-09-21T22:45:30.822Z,1.30
2018-09-21T22:48:04.249Z,1.70
2018-09-21T22:50:34.900Z,1.37
2018-09-21T22:53:24.217Z,1.60
2018-09-21T22:56:01.253Z,1.57
2018-09-21T22:58:33.929Z,1.27
2018-09-21T23:01:14.155Z,1.60
2018-09-21T23:06:29.458Z,1.60
2018-09-21T23:08:56.879Z,1.50
2018-09-21T23:11:24.191Z,1.23
2018-09-21T23:13:51.451Z,1.70
2018-09-21T23:16:18.707Z,1.90
2018-09-21T23:18:45.946Z,1.57
2018-09-21T23:21:13.185Z,1.33
2018-09-21T23:23:40.496Z,1.23
2018-09-21T23:26:07.790Z,1.67
2018-09-21T23:28:35.042Z,1.30
2018-09-21T23:31:02.209Z,1.50
2018-09-21T23:33:29.435Z,1.43
2018-09-21T23:35:56.603Z,1.40
2018-09-21T23:38:23.810Z,1.10
2018-09-21T23:40:51.028Z,1.07
2018-09-21T23:43:18.408Z,1.30
2018-09-21T23:45:45.565Z,1.10
2018-09-21T23:48:13.105Z,1.67
2018-09-21T23:50:40.278Z,1.77
2018-09-21T23:53:07.720Z,1.20
2018-09-21T23:55:35.138Z,1.60
2018-09-21T23:58:02.333Z,1.50
